Time;durP1;ratioP1;P1;durP2;ratioP2;P2;SDS_P1;SDS_P2;PMS_P1;PMS_P2;Temp;Humidity;BMP_temperature;BMP_pressure;BME280_temperature;BME280_humidity;BME280_pressure;Samples;Min_cycle;Max_cycle;Signal;HPM_P1;HPM_P2
2022/03/11 00:01:12;;;;;;;9.88;3.70;;;3.30;35.20;;;1.69;37.35;96422.50;4953075;28;20036;-67
2022/03/11 00:03:38;;;;;;;8.88;3.92;;;3.20;35.10;;;1.62;37.68;96422.19;4955022;28;20526;-67
2022/03/11 00:06:03;;;;;;;7.35;4.22;;;3.10;34.50;;;1.62;37.29;96417.00;4959490;28;20114;-68
2022/03/11 00:08:29;;;;;;;6.15;4.03;;;3.10;34.70;;;1.58;36.89;96425.16;4946599;28;20043;-68
2022/03/11 00:10:55;;;;;;;7.22;3.95;;;3.10;34.70;;;1.53;37.19;96417.75;4971297;28;20046;-67
2022/03/11 00:13:20;;;;;;;7.55;3.50;;;3.10;34.80;;;1.54;37.28;96416.81;4946562;28;20043;-67
2022/03/11 00:15:46;;;;;;;7.70;3.78;;;3.10;34.70;;;1.49;36.38;96416.38;4972295;28;20047;-67
2022/03/11 00:18:13;;;;;;;5.95;3.38;;;3.10;34.30;;;1.43;36.72;96419.47;4963985;28;20031;-68
2022/03/11 00:20:39;;;;;;;7.95;3.47;;;2.90;34.10;;;1.41;36.78;96413.59;4971246;28;20532;-68
2022/03/11 00:23:05;;;;;;;7.97;3.90;;;3.00;34.30;;;1.40;36.44;96427.50;4972719;28;20039;-68
2022/03/11 00:25:31;;;;;;;8.07;4.35;;;3.00;34.20;;;1.37;36.84;96425.16;4951419;28;20105;-67
2022/03/11 00:27:59;;;;;;;7.75;3.95;;;2.90;34.30;;;1.35;36.23;96427.84;4981339;28;20400;-67
2022/03/11 00:30:26;;;;;;;10.50;4.00;;;3.00;34.40;;;1.32;36.70;96429.88;4967135;28;20066;-68
2022/03/11 00:32:51;;;;;;;8.15;3.90;;;2.90;34.50;;;1.29;36.11;96424.94;4969069;28;20031;-68
2022/03/11 00:35:17;;;;;;;6.57;3.60;;;2.80;34.20;;;1.25;36.53;96426.13;4940811;28;20046;-67
2022/03/11 00:37:43;;;;;;;7.85;3.70;;;2.80;34.40;;;1.25;35.94;96423.53;4951040;28;20054;-68
2022/03/11 00:40:09;;;;;;;5.93;3.63;;;2.80;34.20;;;1.21;35.88;96421.19;4952445;28;20039;-67
2022/03/11 00:42:35;;;;;;;10.93;4.20;;;2.80;34.20;;;1.18;36.48;96420.63;4935064;28;20451;-67
2022/03/11 00:45:01;;;;;;;9.38;3.88;;;2.80;34.00;;;1.12;36.10;96424.50;4955559;28;20058;-66
2022/03/11 00:47:27;;;;;;;7.28;3.80;;;2.70;34.00;;;1.12;35.99;96424.50;4952744;28;20142;-67
2022/03/11 00:49:53;;;;;;;7.68;4.10;;;2.70;33.90;;;1.09;35.73;96419.56;4951553;28;20516;-67
2022/03/11 00:52:19;;;;;;;11.00;3.60;;;2.70;34.00;;;1.06;36.18;96414.66;4952855;28;20035;-67
2022/03/11 00:54:45;;;;;;;7.68;3.72;;;2.70;34.20;;;1.03;36.46;96412.31;4947047;28;20031;-67
2022/03/11 00:57:10;;;;;;;8.70;3.70;;;2.60;34.00;;;1.00;35.79;96420.31;4966693;28;20026;-67
2022/03/11 00:59:36;;;;;;;5.72;3.55;;;2.60;33.90;;;0.98;35.82;96417.03;4953507;28;20026;-67
2022/03/11 01:02:02;;;;;;;6.50;4.15;;;2.60;33.90;;;0.91;36.22;96421.06;4981728;28;20529;-66
2022/03/11 01:04:27;;;;;;;7.68;4.50;;;2.50;34.00;;;0.88;35.63;96410.91;4959867;28;20043;-67
2022/03/11 01:06:53;;;;;;;6.72;3.83;;;2.50;34.00;;;0.86;35.60;96412.81;4951636;28;20039;-66
2022/03/11 01:09:19;;;;;;;7.85;4.00;;;2.50;34.20;;;0.86;35.84;96410.22;4960980;28;20142;-67
2022/03/11 01:11:45;;;;;;;6.75;4.00;;;2.50;34.60;;;0.78;36.16;96405.66;4969546;28;20035;-67
2022/03/11 01:14:10;;;;;;;7.13;3.63;;;2.40;34.50;;;0.78;36.13;96403.06;4976409;28;20522;-67
2022/03/11 01:16:36;;;;;;;7.30;4.60;;;2.40;34.30;;;0.74;36.02;96404.25;4951017;28;20077;-67
2022/03/11 01:19:02;;;;;;;7.65;4.13;;;2.40;34.60;;;0.73;36.24;96401.78;4979751;28;20035;-67
2022/03/11 01:21:28;;;;;;;6.20;3.95;;;2.40;34.80;;;0.70;36.08;96407.22;4968696;28;20507;-67
2022/03/11 01:23:54;;;;;;;7.35;3.97;;;2.40;35.10;;;0.67;36.26;96399.66;4925575;28;20039;-66
2022/03/11 01:26:20;;;;;;;7.38;4.22;;;2.30;35.10;;;0.60;36.08;96397.56;4939053;28;20043;-67
2022/03/11 01:28:45;;;;;;;8.00;4.20;;;2.20;35.00;;;0.58;36.21;96399.47;4929754;28;20540;-67
2022/03/11 01:31:12;;;;;;;7.30;3.95;;;2.20;35.60;;;0.54;36.28;96392.88;4951682;28;20043;-68
2022/03/11 01:33:41;;;;;;;9.43;4.32;;;2.20;35.60;;;0.53;36.80;96386.06;4951809;28;20034;-67
2022/03/11 01:36:10;;;;;;;7.40;4.25;;;2.20;35.90;;;0.51;37.13;96387.94;4981231;28;20045;-67
2022/03/11 01:38:39;;;;;;;7.30;4.20;;;2.10;36.00;;;0.51;36.82;96387.13;4961112;28;20058;-67
2022/03/11 01:41:04;;;;;;;7.78;3.97;;;2.10;36.00;;;0.48;36.56;96389.97;4969106;28;20478;-68
2022/03/11 01:43:32;;;;;;;7.13;3.88;;;2.10;36.30;;;0.46;36.97;96390.06;4957169;28;20387;-67
2022/03/11 01:45:59;;;;;;;6.82;4.13;;;2.10;36.40;;;0.42;36.82;96386.06;4977200;28;20476;-68
2022/03/11 01:48:25;;;;;;;13.52;4.50;;;2.10;36.50;;;0.39;36.93;96373.38;4968971;28;20439;-68
2022/03/11 01:50:51;;;;;;;7.22;4.43;;;2.10;36.60;;;0.36;37.11;96378.78;4985296;28;20047;-66
2022/03/11 01:53:16;;;;;;;12.85;5.15;;;2.00;36.70;;;0.37;37.42;96379.59;4953077;28;20035;-67
2022/03/11 01:55:42;;;;;;;10.07;4.85;;;2.10;36.70;;;0.35;37.00;96379.72;4953098;28;20031;-67
2022/03/11 01:58:09;;;;;;;10.48;4.80;;;2.10;37.00;;;0.33;37.20;96384.19;4937221;28;20031;-68
2022/03/11 02:00:37;;;;;;;13.30;4.85;;;2.10;37.00;;;0.32;37.22;96382.56;4983519;28;20058;-68
2022/03/11 02:03:05;;;;;;;10.68;5.10;;;2.00;37.30;;;0.27;38.00;96379.50;4938945;28;20031;-68
2022/03/11 02:05:30;;;;;;;8.73;4.50;;;2.00;37.60;;;0.25;37.38;96386.56;4961722;28;20061;-68
2022/03/11 02:07:59;;;;;;;7.80;5.00;;;1.90;37.60;;;0.24;37.92;96380.56;4976694;28;20027;-68
2022/03/11 02:10:26;;;;;;;12.75;5.18;;;1.90;37.80;;;0.24;37.47;96379.75;4975641;28;20081;-67
2022/03/11 02:12:52;;;;;;;10.70;5.32;;;2.00;37.90;;;0.19;37.89;96376.66;4948958;28;20574;-65
2022/03/11 02:15:17;;;;;;;9.20;4.90;;;1.90;38.00;;;0.17;38.05;96378.56;4975258;28;20043;-67
2022/03/11 02:17:43;;;;;;;10.43;4.18;;;1.90;38.20;;;0.11;38.24;96376.44;4961582;28;20035;-67
2022/03/11 02:20:10;;;;;;;9.48;4.85;;;1.80;38.30;;;0.06;38.19;96370.81;4968428;28;20046;-68
2022/03/11 02:22:36;;;;;;;10.00;5.28;;;1.80;38.30;;;0.03;38.52;96376.22;4972798;28;20039;-67
2022/03/11 02:25:05;;;;;;;7.95;4.85;;;1.80;38.40;;;0.01;38.60;96375.53;4963761;28;20049;-68
2022/03/11 02:27:37;;;;;;;10.02;4.65;;;1.80;38.80;;;-0.02;39.03;96374.78;4919823;29;20039;-67
2022/03/11 02:30:11;;;;;;;8.88;5.28;;;1.70;39.00;;;-0.07;38.58;96376.91;4950471;28;20027;-67
2022/03/11 02:32:36;;;;;;;10.27;4.68;;;1.60;38.80;;;-0.10;38.25;96371.97;4969736;28;20036;-66
2022/03/11 02:35:02;;;;;;;8.52;4.82;;;1.60;39.10;;;-0.13;38.92;96372.22;4949855;28;20035;-67
2022/03/11 02:37:28;;;;;;;8.68;4.95;;;1.60;39.00;;;-0.15;38.91;96370.69;4951153;28;20522;-67
2022/03/11 02:39:55;;;;;;;8.88;5.05;;;1.60;39.10;;;-0.16;38.59;96363.88;4962759;28;20039;-67
2022/03/11 02:42:22;;;;;;;10.15;5.28;;;1.60;39.20;;;-0.21;38.81;96371.97;4951397;28;20570;-67
2022/03/11 02:44:47;;;;;;;10.07;5.38;;;1.50;39.40;;;-0.26;38.77;96361.13;4951675;28;20035;-67
2022/03/11 02:47:13;;;;;;;10.15;4.97;;;1.50;39.50;;;-0.26;39.05;96355.97;4967679;28;20406;-67
2022/03/11 02:49:39;;;;;;;9.10;4.90;;;1.50;39.70;;;-0.28;39.13;96362.19;4940437;28;20046;-67
2022/03/11 02:52:05;;;;;;;12.13;5.38;;;1.40;39.80;;;-0.31;39.24;96355.50;4953029;28;20474;-67
2022/03/11 02:54:30;;;;;;;8.20;5.25;;;1.50;39.90;;;-0.35;39.44;96357.50;4955975;28;20027;-67
2022/03/11 02:56:56;;;;;;;11.10;5.53;;;1.40;39.90;;;-0.39;39.60;96352.69;4960750;28;20031;-67
2022/03/11 02:59:22;;;;;;;11.32;5.25;;;1.30;40.20;;;-0.40;39.47;96348.44;4934219;29;20090;-66
2022/03/11 03:01:48;;;;;;;9.55;5.65;;;1.30;40.30;;;-0.42;39.56;96351.16;4953106;28;20047;-67
2022/03/11 03:04:13;;;;;;;10.27;5.07;;;1.30;40.50;;;-0.43;39.82;96340.94;4969395;28;20625;-67
2022/03/11 03:06:39;;;;;;;10.02;5.28;;;1.30;40.50;;;-0.44;39.67;96341.88;4953417;28;20466;-69
2022/03/11 03:09:05;;;;;;;8.93;5.07;;;1.30;40.70;;;-0.51;40.18;96340.66;4961988;28;20054;-67
2022/03/11 03:11:31;;;;;;;9.75;5.75;;;1.20;40.90;;;-0.55;39.90;96345.25;4939396;28;20066;-67
2022/03/11 03:13:57;;;;;;;9.55;5.70;;;1.20;41.10;;;-0.54;40.05;96343.47;4986917;28;20514;-66
2022/03/11 03:16:22;;;;;;;9.07;5.32;;;1.20;41.00;;;-0.57;40.40;96346.31;4956030;28;20130;-67
2022/03/11 03:18:48;;;;;;;10.75;4.97;;;1.20;41.10;;;-0.58;40.44;96344.66;4959853;28;20110;-67
2022/03/11 03:21:14;;;;;;;10.73;5.60;;;1.20;41.50;;;-0.56;40.66;96353.13;4971926;28;20039;-67
2022/03/11 03:23:39;;;;;;;10.57;6.03;;;1.10;41.30;;;-0.57;40.20;96354.88;4984460;28;20035;-67
2022/03/11 03:26:05;;;;;;;13.10;5.65;;;1.20;41.40;;;-0.56;40.43;96353.94;4971885;28;20110;-67
2022/03/11 03:28:31;;;;;;;9.88;5.30;;;1.20;41.50;;;-0.58;40.79;96352.41;4988435;28;20499;-66
2022/03/11 03:30:57;;;;;;;11.80;6.07;;;1.10;41.70;;;-0.58;41.03;96352.41;4972529;28;20066;-66
2022/03/11 03:33:23;;;;;;;11.52;5.50;;;1.20;41.70;;;-0.61;40.71;96356.03;4971570;28;20517;-67
2022/03/11 03:35:48;;;;;;;15.30;5.50;;;1.20;41.80;;;-0.66;41.16;96356.41;4971111;28;20050;-67
2022/03/11 03:38:14;;;;;;;10.80;5.32;;;1.10;41.70;;;-0.67;40.99;96352.16;4971711;28;20027;-67
2022/03/11 03:40:40;;;;;;;8.98;4.93;;;1.10;41.90;;;-0.68;41.50;96355.69;4955009;28;20043;-67
2022/03/11 03:43:06;;;;;;;10.65;5.88;;;1.10;42.10;;;-0.70;41.03;96352.38;4971862;28;20105;-67
2022/03/11 03:45:31;;;;;;;16.25;5.65;;;1.10;42.10;;;-0.70;41.08;96354.94;4948306;28;20055;-68
2022/03/11 03:47:59;;;;;;;11.68;5.60;;;1.10;42.30;;;-0.71;41.49;96355.88;4970754;28;20620;-68
2022/03/11 03:50:25;;;;;;;11.30;5.90;;;1.10;42.40;;;-0.72;41.57;96341.31;4987156;28;20031;-68
2022/03/11 03:52:50;;;;;;;9.93;5.93;;;1.10;42.50;;;-0.75;41.82;96338.97;4971579;28;20038;-68
2022/03/11 03:55:16;;;;;;;10.38;5.30;;;1.10;42.70;;;-0.75;41.67;96341.56;4964327;28;20574;-72
2022/03/11 03:57:42;;;;;;;12.13;5.80;;;1.00;42.80;;;-0.80;41.79;96333.34;4970440;28;20046;-71
2022/03/11 04:00:08;;;;;;;11.27;5.95;;;1.00;43.00;;;-0.84;42.27;96331.91;4969753;28;20031;-67
2022/03/11 04:02:36;;;;;;;10.88;5.68;;;0.90;43.10;;;-0.86;42.36;96336.38;4967919;28;20067;-68
2022/03/11 04:05:05;;;;;;;10.55;5.45;;;0.90;43.50;;;-0.90;42.46;96334.13;4951425;28;20043;-67
2022/03/11 04:07:31;;;;;;;10.45;6.38;;;0.90;43.50;;;-0.95;42.37;96337.03;4955831;28;20027;-69
2022/03/11 04:09:57;;;;;;;11.18;6.00;;;0.80;43.70;;;-0.94;42.76;96330.94;4947039;28;20543;-69
2022/03/11 04:12:23;;;;;;;10.23;5.88;;;0.80;43.80;;;-0.98;42.59;96338.09;4969413;28;20057;-67
2022/03/11 04:14:48;;;;;;;16.33;8.77;;;0.80;43.80;;;-0.97;42.52;96338.91;4969666;28;20456;-67
2022/03/11 04:17:14;;;;;;;12.43;7.00;;;0.80;44.10;;;-0.98;42.81;96338.09;4969816;28;20038;-67
2022/03/11 04:19:40;;;;;;;13.40;6.88;;;0.80;44.10;;;-1.00;42.63;96339.13;4971193;28;20042;-67
2022/03/11 04:22:05;;;;;;;13.05;5.97;;;0.70;44.20;;;-1.04;42.76;96335.13;4945163;28;20043;-67
2022/03/11 04:24:31;;;;;;;13.75;7.25;;;0.70;44.50;;;-1.07;43.01;96337.94;4942975;28;20031;-67
2022/03/11 04:26:57;;;;;;;14.88;7.00;;;0.70;44.50;;;-1.11;43.23;96331.38;4964585;28;20054;-67
2022/03/11 04:29:26;;;;;;;12.63;6.88;;;0.70;44.50;;;-1.11;43.09;96341.69;4986014;28;20042;-68
2022/03/11 04:31:51;;;;;;;12.60;6.43;;;0.70;44.80;;;-1.10;43.09;96345.91;4981894;28;20035;-68
2022/03/11 04:34:17;;;;;;;14.07;7.00;;;0.70;44.80;;;-1.11;43.46;96339.09;4961730;28;20478;-68
2022/03/11 04:36:43;;;;;;;11.98;6.55;;;0.70;44.90;;;-1.13;43.77;96340.94;4966951;28;20082;-67
2022/03/11 04:39:09;;;;;;;11.20;6.93;;;0.70;45.00;;;-1.15;43.92;96341.06;4958381;28;20117;-67
2022/03/11 04:41:35;;;;;;;13.50;6.80;;;0.70;45.20;;;-1.16;43.97;96336.00;4924065;28;20047;-67
2022/03/11 04:44:01;;;;;;;13.48;6.90;;;0.60;45.30;;;-1.17;44.23;96334.38;4943014;28;20031;-68
2022/03/11 04:46:27;;;;;;;12.73;7.20;;;0.60;45.40;;;-1.20;44.40;96332.84;4943711;28;20463;-66
2022/03/11 04:48:53;;;;;;;15.25;8.77;;;0.60;45.70;;;-1.21;44.11;96341.50;4941245;28;20132;-66
2022/03/11 04:51:21;;;;;;;15.05;7.78;;;0.60;45.80;;;-1.25;44.04;96330.59;4985263;28;20387;-66
2022/03/11 04:53:46;;;;;;;12.98;6.80;;;0.50;45.90;;;-1.27;44.28;96322.16;4952508;28;20035;-67
2022/03/11 04:56:12;;;;;;;13.30;7.25;;;0.50;46.20;;;-1.31;44.80;96325.88;4949998;28;20046;-67
2022/03/11 04:58:38;;;;;;;11.98;6.68;;;0.50;46.20;;;-1.35;44.67;96321.06;4951397;28;20039;-66
2022/03/11 05:01:03;;;;;;;12.43;6.75;;;0.50;46.40;;;-1.34;45.12;96325.28;4958965;28;20107;-68
2022/03/11 05:03:29;;;;;;;14.15;7.65;;;0.50;46.40;;;-1.33;45.06;96322.59;4968940;28;20031;-68
2022/03/11 05:05:55;;;;;;;16.60;9.20;;;0.50;46.80;;;-1.33;45.00;96322.59;4958849;28;20039;-66
2022/03/11 05:08:21;;;;;;;13.77;7.85;;;0.50;47.10;;;-1.34;45.65;96320.13;4985521;28;20047;-68
2022/03/11 05:10:46;;;;;;;11.95;6.63;;;0.50;47.90;;;-1.38;45.42;96313.50;4955337;28;20674;-69
2022/03/11 05:13:12;;;;;;;13.05;7.60;;;0.50;47.00;;;-1.41;45.25;96314.56;4962116;28;20038;-67
2022/03/11 05:15:38;;;;;;;20.15;7.80;;;0.40;47.20;;;-1.40;45.34;96316.22;4968759;28;20043;-68
2022/03/11 05:18:04;;;;;;;13.13;7.38;;;0.40;47.10;;;-1.44;45.81;96314.78;4943533;28;20039;-68
2022/03/11 05:20:31;;;;;;;13.63;7.35;;;0.40;47.20;;;-1.47;45.55;96314.19;4959321;28;20055;-67
2022/03/11 05:22:56;;;;;;;13.85;7.63;;;0.40;47.30;;;-1.52;45.88;96311.13;4952624;28;20035;-67
2022/03/11 05:25:23;;;;;;;14.38;7.28;;;0.30;47.70;;;-1.53;46.25;96309.47;4968313;28;20201;-68
2022/03/11 05:27:52;;;;;;;13.27;7.47;;;0.20;47.70;;;-1.53;46.42;96310.28;4930480;28;20519;-68
2022/03/11 05:30:17;;;;;;;13.45;6.88;;;0.40;47.70;;;-1.55;46.21;96312.16;4950772;28;20047;-71
2022/03/11 05:32:47;;;;;;;12.85;7.63;;;0.30;47.90;;;-1.55;46.48;96312.16;4955458;28;20031;-70
2022/03/11 05:35:14;;;;;;;17.80;7.75;;;0.30;48.00;;;-1.55;46.46;96312.16;4972986;28;20042;-70
2022/03/11 05:37:40;;;;;;;16.10;7.45;;;0.30;48.00;;;-1.54;46.63;96308.66;4969463;28;20062;-70
2022/03/11 05:40:07;;;;;;;14.43;7.40;;;0.30;48.10;;;-1.54;46.54;96318.97;4968623;28;20031;-70
2022/03/11 05:42:32;;;;;;;13.85;8.05;;;0.40;48.80;;;-1.56;46.60;96315.69;4969020;28;20027;-69
2022/03/11 05:44:58;;;;;;;14.30;7.65;;;0.30;48.50;;;-1.57;46.93;96309.69;4936672;28;20054;-70
2022/03/11 05:47:24;;;;;;;16.77;7.90;;;0.20;48.50;;;-1.61;47.43;96320.31;4969577;28;20031;-69
2022/03/11 05:49:50;;;;;;;22.35;10.15;;;0.30;49.60;;;-1.59;47.34;96313.28;4969549;28;20494;-69
2022/03/11 05:52:15;;;;;;;16.92;10.68;;;0.30;49.30;;;-1.58;47.60;96314.97;4973539;28;20125;-70
2022/03/11 05:54:41;;;;;;;17.80;10.32;;;0.30;49.30;;;-1.59;47.43;96311.53;4984619;28;20034;-69
2022/03/11 05:57:07;;;;;;;15.95;8.57;;;0.30;49.30;;;-1.59;47.13;96316.69;4952741;28;20031;-69
2022/03/11 05:59:33;;;;;;;20.88;8.02;;;0.30;49.00;;;-1.57;47.28;96326.94;4953487;28;20499;-69
2022/03/11 06:01:59;;;;;;;13.18;7.88;;;0.40;49.00;;;-1.57;47.68;96324.34;4977054;28;20039;-69
2022/03/11 06:04:25;;;;;;;15.55;8.05;;;0.30;49.00;;;-1.55;47.61;96323.31;4965775;28;20082;-69
2022/03/11 06:06:50;;;;;;;11.82;7.15;;;0.40;49.00;;;-1.53;47.79;96327.53;4957381;28;20039;-69
2022/03/11 06:09:16;;;;;;;13.55;8.00;;;0.40;48.90;;;-1.53;47.95;96332.69;4937048;28;20066;-70
2022/03/11 06:11:42;;;;;;;14.18;8.13;;;0.40;49.10;;;-1.52;47.59;96326.59;4966630;28;20110;-70
2022/03/11 06:14:08;;;;;;;13.23;7.85;;;0.50;49.30;;;-1.51;47.89;96329.06;4949694;28;20042;-69
2022/03/11 06:16:34;;;;;;;18.63;10.30;;;0.40;49.20;;;-1.49;48.17;96332.34;4983036;28;20383;-70
2022/03/11 06:18:59;;;;;;;18.85;9.32;;;0.50;49.50;;;-1.46;48.27;96339.88;4968249;28;20416;-70
2022/03/11 06:21:25;;;;;;;15.25;8.27;;;0.60;49.70;;;-1.41;48.03;96336.97;4985078;28;20122;-69
2022/03/11 06:23:51;;;;;;;15.95;8.95;;;0.60;49.50;;;-1.39;48.01;96343.66;4955717;28;20711;-69
2022/03/11 06:26:18;;;;;;;15.80;8.63;;;0.70;49.20;;;-1.37;48.08;96352.09;4970642;28;20110;-70
2022/03/11 06:28:43;;;;;;;16.45;7.93;;;0.60;49.10;;;-1.33;48.68;96358.72;4975057;28;20055;-70
2022/03/11 06:31:11;;;;;;;14.77;8.60;;;0.70;49.20;;;-1.31;48.41;96354.28;4971614;28;20461;-69
2022/03/11 06:33:37;;;;;;;14.55;8.65;;;0.70;48.90;;;-1.23;48.24;96359.69;4953437;28;20101;-70
2022/03/11 06:36:04;;;;;;;16.33;8.88;;;0.90;48.90;;;-1.15;48.33;96353.16;4937186;29;20027;-69
2022/03/11 06:38:30;;;;;;;23.67;8.95;;;1.10;48.50;;;-1.06;48.31;96355.09;4953497;28;20035;-69
2022/03/11 06:40:56;;;;;;;15.00;8.48;;;1.20;48.20;;;-1.00;48.41;96355.44;4981781;28;20038;-69
2022/03/11 06:43:22;;;;;;;19.77;8.27;;;1.30;47.90;;;-0.89;48.28;96362.44;4972542;28;20039;-69
2022/03/11 06:45:48;;;;;;;13.50;8.68;;;1.50;48.00;;;-0.78;48.72;96365.03;4969365;28;20034;-70
2022/03/11 06:48:14;;;;;;;18.70;8.15;;;1.60;47.20;;;-0.66;48.10;96365.91;4953128;28;20032;-69
2022/03/11 06:50:40;;;;;;;15.00;8.65;;;1.80;46.90;;;-0.54;48.34;96361.56;4953277;28;20042;-69
2022/03/11 06:53:06;;;;;;;17.58;9.20;;;2.00;46.20;;;-0.41;47.92;96367.47;4936401;28;20077;-71
2022/03/11 06:55:32;;;;;;;17.63;9.18;;;2.10;46.00;;;-0.23;47.84;96373.81;4945202;28;20050;-69
2022/03/11 06:57:59;;;;;;;15.93;8.88;;;2.40;45.50;;;-0.09;47.73;96373.63;4988569;28;20030;-70
2022/03/11 07:00:25;;;;;;;17.95;9.05;;;2.60;45.00;;;0.06;47.38;96370.81;4988469;28;20050;-71
2022/03/11 07:02:51;;;;;;;19.75;9.40;;;2.70;44.50;;;0.20;47.52;96378.31;4983254;28;20093;-71
2022/03/11 07:05:17;;;;;;;18.95;9.82;;;3.00;44.10;;;0.37;47.37;96374.44;4988231;28;20031;-70
2022/03/11 07:07:42;;;;;;;15.90;8.40;;;3.10;43.60;;;0.55;46.84;96375.59;4972756;28;20041;-70
2022/03/11 07:10:12;;;;;;;15.23;9.20;;;3.30;42.90;;;0.68;46.65;96378.00;4976385;28;20083;-71
2022/03/11 07:12:38;;;;;;;16.38;9.25;;;3.50;42.50;;;0.84;47.15;96378.44;4937774;28;20055;-70
2022/03/11 07:15:05;;;;;;;15.15;9.00;;;3.80;42.40;;;1.03;47.04;96376.03;4952243;28;20063;-69
2022/03/11 07:17:31;;;;;;;14.38;9.10;;;4.10;42.00;;;1.22;46.95;96371.03;4937071;28;20039;-71
2022/03/11 07:19:57;;;;;;;14.68;8.77;;;4.30;41.00;;;1.39;46.78;96374.84;4955608;28;20034;-71
2022/03/11 07:22:23;;;;;;;17.60;9.13;;;4.40;40.60;;;1.58;46.03;96370.69;4973302;28;20506;-70
2022/03/11 07:24:49;;;;;;;14.55;9.25;;;4.60;40.10;;;1.77;45.50;96363.88;4984260;28;20036;-69
2022/03/11 07:27:15;;;;;;;14.45;9.00;;;4.90;39.40;;;1.98;45.34;96360.44;4968950;28;20070;-69
2022/03/11 07:29:41;;;;;;;15.50;8.73;;;5.40;39.30;;;2.25;45.94;96367.63;4953076;28;20543;-69
2022/03/11 07:32:08;;;;;;;17.27;9.68;;;5.80;38.40;;;2.41;44.89;96378.34;4938755;28;20118;-69
2022/03/11 07:34:34;;;;;;;16.40;9.55;;;5.90;37.70;;;2.54;44.68;96375.53;4956138;28;20050;-70
2022/03/11 07:37:00;;;;;;;15.48;9.35;;;6.20;37.50;;;2.78;44.48;96376.00;4970960;28;20027;-69
2022/03/11 07:39:26;;;;;;;12.50;8.63;;;6.60;36.60;;;3.04;44.17;96382.31;4937765;28;20132;-70
2022/03/11 07:41:52;;;;;;;15.20;9.02;;;7.20;35.70;;;3.29;43.88;96374.94;4952747;28;20059;-70
2022/03/11 07:44:18;;;;;;;13.25;9.38;;;7.50;35.00;;;3.54;43.65;96378.75;4952431;28;20039;-70
2022/03/11 07:46:44;;;;;;;15.98;9.50;;;7.70;34.10;;;3.79;43.18;96382.56;4959120;28;20046;-70
2022/03/11 07:49:10;;;;;;;15.55;9.45;;;8.30;33.70;;;4.05;42.85;96378.38;4987407;28;20035;-70
2022/03/11 07:51:36;;;;;;;13.65;9.75;;;8.60;32.70;;;4.25;42.46;96373.94;4955186;28;20523;-71
2022/03/11 07:54:01;;;;;;;12.35;9.02;;;8.80;32.20;;;4.51;41.98;96368.88;4987933;28;20043;-69
2022/03/11 07:56:27;;;;;;;12.68;9.40;;;9.40;32.30;;;4.79;41.56;96370.53;4970850;28;20476;-71
2022/03/11 07:58:56;;;;;;;13.75;9.82;;;9.80;31.30;;;5.05;41.74;96367.22;4953160;28;20118;-68
2022/03/11 08:01:22;;;;;;;12.32;9.48;;;10.20;30.70;;;5.30;41.12;96370.84;4937254;28;20070;-70
2022/03/11 08:03:47;;;;;;;13.63;9.90;;;10.60;30.20;;;5.53;40.57;96370.25;4982430;28;20039;-70
2022/03/11 08:06:13;;;;;;;14.30;9.68;;;10.90;29.90;;;5.80;39.70;96361.47;4954428;28;20109;-69
2022/03/11 08:08:39;;;;;;;13.88;9.80;;;11.20;28.90;;;5.99;39.72;96355.25;4955512;28;20091;-71
2022/03/11 08:11:05;;;;;;;14.63;9.23;;;11.40;29.00;;;6.27;39.84;96360.31;4975278;28;20423;-70
2022/03/11 08:13:31;;;;;;;12.82;9.50;;;11.60;28.40;;;6.53;38.99;96355.03;4951924;28;20410;-70
2022/03/11 08:15:58;;;;;;;13.73;9.52;;;12.00;28.10;;;6.76;39.13;96354.28;4951821;28;20034;-69
2022/03/11 08:18:23;;;;;;;15.98;9.40;;;12.20;27.30;;;6.96;38.67;96356.66;4953203;28;20155;-72
2022/03/11 08:20:49;;;;;;;11.25;9.25;;;12.50;27.20;;;7.15;37.80;96342.47;4970756;28;20424;-69
2022/03/11 08:23:15;;;;;;;14.07;9.23;;;12.60;26.80;;;7.40;37.99;96353.75;4971038;28;20058;-70
2022/03/11 08:25:41;;;;;;;12.95;9.38;;;12.90;26.50;;;7.66;37.71;96349.19;4948639;28;20039;-70
2022/03/11 08:28:10;;;;;;;17.48;9.10;;;13.20;25.90;;;7.88;36.62;96348.50;4951644;28;20482;-69
2022/03/11 08:30:39;;;;;;;14.68;9.82;;;13.50;25.90;;;8.09;36.50;96336.69;4952108;28;20057;-70
2022/03/11 08:33:05;;;;;;;12.25;9.15;;;13.80;25.80;;;8.28;36.05;96339.75;4957139;28;20038;-70
2022/03/11 08:35:30;;;;;;;13.50;9.10;;;14.00;25.00;;;8.55;35.98;96343.78;4970445;28;20043;-70
2022/03/11 08:37:56;;;;;;;13.38;9.57;;;14.40;25.10;;;8.84;35.59;96339.72;4970868;28;20039;-69
2022/03/11 08:40:23;;;;;;;13.68;9.30;;;14.70;24.80;;;9.17;35.23;96338.53;4936691;28;20046;-70
2022/03/11 08:42:50;;;;;;;12.77;9.30;;;15.10;24.40;;;9.44;34.57;96336.38;4952915;28;20127;-72
2022/03/11 08:45:16;;;;;;;13.57;9.80;;;15.30;24.00;;;9.77;34.36;96336.94;4954468;28;20025;-70
2022/03/11 08:47:42;;;;;;;14.00;9.48;;;15.60;23.50;;;10.10;33.36;96333.00;4940400;28;20503;-70
2022/03/11 08:50:08;;;;;;;13.20;8.77;;;16.00;23.20;;;10.36;34.37;96311.53;4967032;28;20455;-71
2022/03/11 08:52:34;;;;;;;13.95;9.05;;;16.30;23.00;;;10.58;33.17;96327.41;4967373;28;20059;-70
2022/03/11 08:55:00;;;;;;;14.50;8.82;;;16.20;22.70;;;10.80;33.01;96318.56;4950509;28;20357;-70
2022/03/11 08:57:26;;;;;;;13.88;9.73;;;16.50;22.30;;;11.02;32.72;96319.41;4967409;28;20045;-70
2022/03/11 08:59:54;;;;;;;12.80;8.93;;;16.70;22.30;;;11.34;33.10;96310.25;4954564;28;20027;-70
2022/03/11 09:02:22;;;;;;;11.73;8.43;;;17.00;22.20;;;11.59;32.44;96308.84;4968741;28;20113;-69
2022/03/11 09:04:47;;;;;;;14.05;9.05;;;17.10;21.80;;;11.89;32.03;96304.22;4974724;28;20102;-69
2022/03/11 09:07:13;;;;;;;11.63;8.82;;;17.40;21.40;;;12.09;30.99;96309.66;4950638;28;20063;-70
2022/03/11 09:09:39;;;;;;;12.98;8.98;;;17.50;21.20;;;12.43;31.01;96302.72;4967752;28;20108;-70
2022/03/11 09:12:05;;;;;;;10.70;8.82;;;18.10;21.10;;;12.78;30.65;96309.59;4986129;28;20038;-70
2022/03/11 09:14:31;;;;;;;11.48;8.60;;;18.40;20.60;;;13.11;30.60;96319.44;4986278;28;20407;-70
2022/03/11 09:16:58;;;;;;;13.40;8.82;;;18.70;20.70;;;13.38;29.89;96310.63;4937552;28;20537;-70
2022/03/11 09:19:23;;;;;;;11.80;8.98;;;18.80;20.00;;;13.59;28.96;96306.16;4954182;28;20035;-70
2022/03/11 09:21:49;;;;;;;11.00;8.88;;;18.70;20.10;;;13.83;29.62;96297.63;4970278;28;20067;-70
2022/03/11 09:24:15;;;;;;;11.70;9.20;;;19.10;20.10;;;13.94;28.71;96299.63;4948552;28;20404;-69
2022/03/11 09:26:41;;;;;;;11.18;8.25;;;19.20;20.00;;;13.97;28.40;96301.88;4950811;28;20035;-69
2022/03/11 09:29:07;;;;;;;14.40;9.45;;;19.10;19.70;;;14.08;28.92;96305.75;4966241;28;20115;-70
2022/03/11 09:31:34;;;;;;;11.88;9.18;;;19.10;20.00;;;14.22;27.56;96295.94;4950710;28;20042;-70
2022/03/11 09:34:00;;;;;;;13.38;9.18;;;19.20;19.90;;;14.28;28.50;96300.41;4950468;28;20458;-70
2022/03/11 09:36:26;;;;;;;11.55;8.82;;;19.20;19.60;;;14.36;26.74;96302.84;4950515;28;20039;-70
2022/03/11 09:38:52;;;;;;;11.93;8.43;;;19.40;19.30;;;14.46;27.33;96300.59;4975185;28;20125;-69
2022/03/11 09:41:19;;;;;;;10.95;8.65;;;19.70;19.10;;;14.55;27.92;96291.41;4937221;28;20062;-69
2022/03/11 09:43:45;;;;;;;11.25;8.73;;;20.00;18.90;;;14.72;27.79;96291.78;4938332;28;20231;-68
2022/03/11 09:46:11;;;;;;;12.38;9.27;;;20.30;18.50;;;14.83;27.22;96292.94;4927062;28;20063;-69
2022/03/11 09:48:36;;;;;;;12.27;8.98;;;20.60;18.20;;;14.92;25.76;96291.66;4950709;28;20038;-69
2022/03/11 09:51:02;;;;;;;10.00;8.13;;;20.90;18.20;;;15.09;25.56;96287.50;4934284;28;20051;-69
2022/03/11 09:53:28;;;;;;;12.32;8.93;;;21.60;17.80;;;15.35;25.93;96291.00;4970549;28;20038;-68
2022/03/11 09:55:54;;;;;;;12.32;8.75;;;22.20;17.20;;;15.63;25.87;96290.66;4969594;28;20047;-69
2022/03/11 09:58:20;;;;;;;12.48;9.00;;;23.00;16.60;;;15.82;26.41;96281.72;4938029;28;20406;-69
2022/03/11 10:00:47;;;;;;;13.30;8.88;;;23.50;16.10;;;16.04;26.74;96285.59;4944218;28;20079;-70
2022/03/11 10:03:13;;;;;;;13.15;9.27;;;24.30;15.80;;;16.44;26.67;96291.31;4960093;28;20035;-70
2022/03/11 10:05:49;;;;;;;11.65;8.45;;;25.10;15.10;;;17.03;23.64;96292.50;4969658;28;20463;-70
2022/03/11 10:08:16;;;;;;;10.70;8.32;;;26.10;14.50;;;17.67;26.08;96292.81;4970858;28;20033;-70
2022/03/11 10:10:42;;;;;;;11.13;8.38;;;26.90;13.80;;;18.26;25.21;96280.38;4950696;28;20031;-70
2022/03/11 10:13:09;;;;;;;15.40;9.05;;;27.60;13.10;;;18.64;25.69;96280.72;4933992;28;20043;-70
2022/03/11 10:15:35;;;;;;;12.82;8.90;;;28.30;13.00;;;19.19;25.55;96284.69;4950378;28;20096;-70
2022/03/11 10:18:02;;;;;;;12.13;8.30;;;29.10;12.50;;;19.87;24.68;96279.25;4950244;28;20508;-69